createdAt,value
2017-01-13T00:00:02.202Z,1.56
2017-01-13T00:10:02.573Z,1.35
2017-01-13T00:20:03.061Z,1.16
2017-01-13T00:30:02.422Z,0.95
2017-01-13T00:40:02.829Z,0.77
2017-01-13T00:50:02.312Z,0.59
2017-01-13T01:00:02.676Z,0.43
2017-01-13T01:10:03.067Z,0.38
2017-01-13T01:20:02.567Z,0.37
2017-01-13T01:30:02.975Z,0.33
2017-01-13T01:40:02.356Z,0.25
2017-01-13T01:50:02.811Z,0.2
2017-01-13T02:00:02.195Z,0.15
2017-01-13T02:10:02.632Z,0.14
2017-01-13T02:20:02.162Z,0.14
2017-01-13T02:30:02.552Z,0.15
2017-01-13T02:40:02.951Z,0.15
2017-01-13T02:50:02.360Z,0.15
2017-01-13T03:00:02.749Z,0.15
2017-01-13T03:10:02.165Z,0.13
2017-01-13T03:20:02.707Z,0.15
2017-01-13T03:30:03.098Z,0.17
2017-01-13T03:40:02.520Z,0.17
2017-01-13T03:50:02.920Z,0.18
2017-01-13T04:00:02.329Z,0.16
2017-01-13T04:10:02.767Z,0.18
2017-01-13T04:20:02.322Z,0.15
2017-01-13T04:30:02.737Z,0.16
2017-01-13T04:40:03.149Z,0.2
2017-01-13T04:50:02.583Z,0.2
2017-01-13T05:00:03.046Z,0.22
2017-01-13T05:10:02.474Z,0.27
2017-01-13T05:20:02.984Z,0.3
2017-01-13T05:30:02.344Z,0.34
2017-01-13T05:40:02.476Z,0.46
2017-01-13T05:50:02.930Z,0.6
2017-01-13T06:00:02.363Z,0.66
2017-01-13T06:10:02.838Z,0.63
2017-01-13T06:20:02.339Z,0.49
2017-01-13T06:30:02.805Z,0.32
2017-01-13T06:40:02.247Z,0.17
2017-01-13T06:50:02.685Z,0.07
2017-01-13T07:00:03.085Z,0.04
2017-01-13T07:10:02.484Z,0.06
2017-01-13T07:20:02.991Z,0.03
2017-01-13T07:30:02.411Z,0.03
2017-01-13T07:40:02.835Z,0.05
2017-01-13T07:50:02.285Z,0.1
2017-01-13T08:00:02.738Z,0.09
2017-01-13T08:10:02.126Z,0.12
2017-01-13T08:20:02.531Z,0.16
2017-01-13T08:30:02.944Z,0.22
2017-01-13T08:40:02.342Z,0.25
2017-01-13T08:50:02.771Z,0.29
2017-01-13T09:00:02.155Z,0.31
2017-01-13T09:10:02.585Z,0.35
2017-01-13T09:20:03.115Z,0.38
2017-01-13T09:30:02.527Z,0.5
2017-01-13T09:40:02.934Z,0.53
2017-01-13T09:50:02.345Z,0.54
2017-01-13T10:00:02.796Z,0.55
2017-01-13T10:10:02.206Z,0.43
2017-01-13T10:20:02.725Z,0.47
2017-01-13T10:30:03.086Z,0.73
2017-01-13T10:40:02.533Z,0.88
2017-01-13T10:50:02.990Z,0.99
2017-01-13T11:00:02.373Z,1.06
2017-01-13T11:10:02.825Z,1.13
2017-01-13T11:20:02.332Z,1.19
2017-01-13T11:30:02.707Z,1.27
2017-01-13T11:40:03.146Z,1.36
2017-01-13T11:50:02.396Z,1.43
2017-01-13T12:00:02.644Z,1.57
2017-01-13T12:10:02.918Z,1.49
2017-01-13T12:20:02.274Z,1.48
2017-01-13T12:30:02.485Z,1.49
2017-01-13T12:40:02.762Z,1.49
2017-01-13T12:50:02.190Z,1.49
2017-01-13T13:00:02.725Z,1.48
2017-01-13T13:10:03.143Z,1.55
2017-01-13T13:20:02.620Z,1.57
2017-01-13T13:30:02.990Z,1.52
2017-01-13T13:40:02.342Z,1.5
2017-01-13T13:50:02.776Z,1.52
2017-01-13T14:00:02.174Z,1.52
2017-01-13T14:10:02.549Z,1.54
2017-01-13T14:20:03.092Z,1.54
2017-01-13T14:30:02.474Z,1.54
2017-01-13T14:40:02.874Z,1.55
2017-01-13T14:50:02.244Z,1.6
2017-01-13T15:00:02.721Z,1.6
2017-01-13T15:10:03.135Z,1.61
2017-01-13T15:20:02.582Z,1.55
2017-01-13T15:30:03.223Z,1.53
2017-01-13T15:40:02.762Z,1.38
2017-01-13T15:50:02.359Z,1.23
2017-01-13T16:00:02.757Z,1.16
2017-01-13T16:10:02.146Z,1.08
2017-01-13T16:20:02.659Z,1.07
2017-01-13T16:30:02.723Z,0.94
2017-01-13T16:40:03.138Z,0.8
2017-01-13T16:50:02.522Z,0.8
2017-01-13T17:00:03.188Z,0.76
2017-01-13T17:10:03.153Z,0.73
2017-01-13T17:20:02.868Z,0.67
2017-01-13T17:30:02.273Z,0.63
2017-01-13T17:40:02.806Z,0.53
2017-01-13T17:50:02.258Z,0.48
2017-01-13T18:00:02.996Z,0.48
2017-01-13T18:10:02.365Z,0.46
2017-01-13T18:20:02.867Z,0.39
2017-01-13T18:30:02.270Z,0.24
2017-01-13T18:40:02.682Z,0.21
2017-01-13T18:50:03.127Z,0.18
2017-01-13T19:00:02.552Z,0.09
2017-01-13T19:10:02.911Z,0.08
2017-01-13T19:20:02.388Z,0.14
2017-01-13T19:30:02.798Z,0.24
2017-01-13T19:40:02.215Z,0.35
2017-01-13T19:50:02.696Z,0.46
2017-01-13T20:00:03.087Z,0.49
2017-01-13T20:10:02.530Z,0.59
2017-01-13T20:20:03.119Z,0.67
2017-01-13T20:30:02.546Z,0.73
2017-01-13T20:40:02.935Z,0.64
2017-01-13T20:50:02.453Z,0.5
2017-01-13T21:00:02.888Z,0.38
2017-01-13T21:10:02.331Z,0.34
2017-01-13T21:20:02.856Z,0.23
2017-01-13T21:30:02.272Z,0.16
2017-01-13T21:40:02.827Z,0.09
2017-01-13T21:50:02.260Z,0.04
2017-01-13T22:00:02.741Z,0.02
2017-01-13T22:10:03.170Z,0.02
2017-01-13T22:20:02.674Z,0.07
2017-01-13T22:30:03.085Z,0.13
2017-01-13T22:40:02.492Z,0.1
2017-01-13T22:50:02.927Z,0.14
2017-01-13T23:00:02.350Z,0.24
2017-01-13T23:10:02.753Z,0.37
2017-01-13T23:20:02.255Z,0.44
2017-01-13T23:30:02.635Z,0.57
2017-01-13T23:40:03.037Z,0.8
2017-01-13T23:50:02.455Z,1.1
